sensor_id;sensor_type;location;lat;lon;timestamp;temperature;humidity
16315;DHT22;8266;52.150;4.768;2022-12-04T00:01:32;3.70;99.90
16315;DHT22;8266;52.150;4.768;2022-12-04T00:04:00;3.70;99.90
16315;DHT22;8266;52.150;4.768;2022-12-04T00:06:27;3.70;99.90
16315;DHT22;8266;52.150;4.768;2022-12-04T00:08:55;3.70;99.90
16315;DHT22;8266;52.150;4.768;2022-12-04T00:11:24;3.70;99.90
16315;DHT22;8266;52.150;4.768;2022-12-04T00:13:51;3.70;99.90
16315;DHT22;8266;52.150;4.768;2022-12-04T00:16:21;3.90;99.90
16315;DHT22;8266;52.150;4.768;2022-12-04T00:18:50;3.70;99.90
16315;DHT22;8266;52.150;4.768;2022-12-04T00:21:18;3.70;99.90
16315;DHT22;8266;52.150;4.768;2022-12-04T00:23:46;3.80;99.90
16315;DHT22;8266;52.150;4.768;2022-12-04T00:26:15;3.70;99.90
16315;DHT22;8266;52.150;4.768;2022-12-04T00:28:43;3.80;99.90
16315;DHT22;8266;52.150;4.768;2022-12-04T00:31:12;3.80;99.90
16315;DHT22;8266;52.150;4.768;2022-12-04T00:33:39;3.70;99.90
16315;DHT22;8266;52.150;4.768;2022-12-04T00:36:10;3.80;99.90
16315;DHT22;8266;52.150;4.768;2022-12-04T00:38:38;3.70;99.90
16315;DHT22;8266;52.150;4.768;2022-12-04T00:41:07;3.80;99.90
16315;DHT22;8266;52.150;4.768;2022-12-04T00:43:34;3.70;99.90
16315;DHT22;8266;52.150;4.768;2022-12-04T00:46:01;3.70;99.90
16315;DHT22;8266;52.150;4.768;2022-12-04T00:48:28;3.80;99.90
16315;DHT22;8266;52.150;4.768;2022-12-04T00:50:59;3.70;99.90
16315;DHT22;8266;52.150;4.768;2022-12-04T00:53:27;3.70;99.90
16315;DHT22;8266;52.150;4.768;2022-12-04T00:55:55;3.70;99.90
16315;DHT22;8266;52.150;4.768;2022-12-04T00:58:22;3.70;99.90
16315;DHT22;8266;52.150;4.768;2022-12-04T01:00:49;3.70;99.90
16315;DHT22;8266;52.150;4.768;2022-12-04T01:03:16;3.70;99.90
16315;DHT22;8266;52.150;4.768;2022-12-04T01:05:44;3.90;99.90
16315;DHT22;8266;52.150;4.768;2022-12-04T01:08:12;3.70;99.90
16315;DHT22;8266;52.150;4.768;2022-12-04T01:10:41;3.70;99.90
16315;DHT22;8266;52.150;4.768;2022-12-04T01:13:08;3.70;99.90
16315;DHT22;8266;52.150;4.768;2022-12-04T01:15:37;3.70;99.90
16315;DHT22;8266;52.150;4.768;2022-12-04T01:18:04;3.60;99.90
16315;DHT22;8266;52.150;4.768;2022-12-04T01:20:31;3.70;99.90
16315;DHT22;8266;52.150;4.768;2022-12-04T01:22:58;3.60;99.90
16315;DHT22;8266;52.150;4.768;2022-12-04T01:25:25;3.70;99.90
16315;DHT22;8266;52.150;4.768;2022-12-04T01:27:54;3.70;99.90
16315;DHT22;8266;52.150;4.768;2022-12-04T01:30:21;3.80;99.90
16315;DHT22;8266;52.150;4.768;2022-12-04T01:32:48;3.70;99.90
16315;DHT22;8266;52.150;4.768;2022-12-04T01:35:15;3.70;99.90
16315;DHT22;8266;52.150;4.768;2022-12-04T01:37:44;3.70;99.90
16315;DHT22;8266;52.150;4.768;2022-12-04T01:40:15;3.80;99.90
16315;DHT22;8266;52.150;4.768;2022-12-04T01:42:42;3.70;99.90
16315;DHT22;8266;52.150;4.768;2022-12-04T01:45:40;3.80;99.90
16315;DHT22;8266;52.150;4.768;2022-12-04T01:48:17;3.80;99.90
16315;DHT22;8266;52.150;4.768;2022-12-04T01:50:45;3.70;99.90
16315;DHT22;8266;52.150;4.768;2022-12-04T01:53:13;3.70;99.90
16315;DHT22;8266;52.150;4.768;2022-12-04T01:55:40;3.70;99.90
16315;DHT22;8266;52.150;4.768;2022-12-04T01:58:08;3.70;99.90
16315;DHT22;8266;52.150;4.768;2022-12-04T02:00:35;3.70;99.90
16315;DHT22;8266;52.150;4.768;2022-12-04T02:03:04;3.70;99.90
16315;DHT22;8266;52.150;4.768;2022-12-04T02:05:31;3.70;99.90
16315;DHT22;8266;52.150;4.768;2022-12-04T02:08:00;3.70;99.90
16315;DHT22;8266;52.150;4.768;2022-12-04T02:10:36;3.70;99.90
16315;DHT22;8266;52.150;4.768;2022-12-04T02:13:12;3.70;99.90
16315;DHT22;8266;52.150;4.768;2022-12-04T02:15:46;3.70;99.90
16315;DHT22;8266;52.150;4.768;2022-12-04T02:18:19;3.70;99.90
16315;DHT22;8266;52.150;4.768;2022-12-04T02:20:53;3.70;99.90
16315;DHT22;8266;52.150;4.768;2022-12-04T02:23:45;3.90;99.90
16315;DHT22;8266;52.150;4.768;2022-12-04T02:26:32;3.70;99.90
16315;DHT22;8266;52.150;4.768;2022-12-04T02:29:08;3.70;99.90
16315;DHT22;8266;52.150;4.768;2022-12-04T02:31:40;3.80;99.90
16315;DHT22;8266;52.150;4.768;2022-12-04T02:34:13;3.70;99.90
16315;DHT22;8266;52.150;4.768;2022-12-04T02:36:46;3.70;99.90
16315;DHT22;8266;52.150;4.768;2022-12-04T02:39:17;3.80;99.90
16315;DHT22;8266;52.150;4.768;2022-12-04T02:41:49;3.70;99.90
16315;DHT22;8266;52.150;4.768;2022-12-04T02:44:26;3.70;99.90
16315;DHT22;8266;52.150;4.768;2022-12-04T02:46:56;3.70;99.90
16315;DHT22;8266;52.150;4.768;2022-12-04T02:49:27;3.70;99.90
16315;DHT22;8266;52.150;4.768;2022-12-04T02:51:56;3.70;99.90
16315;DHT22;8266;52.150;4.768;2022-12-04T02:54:29;3.70;99.90
16315;DHT22;8266;52.150;4.768;2022-12-04T02:56:58;3.70;99.90
16315;DHT22;8266;52.150;4.768;2022-12-04T02:59:31;3.80;99.90
16315;DHT22;8266;52.150;4.768;2022-12-04T03:02:05;3.70;99.90
16315;DHT22;8266;52.150;4.768;2022-12-04T03:04:34;3.80;99.90
16315;DHT22;8266;52.150;4.768;2022-12-04T03:07:06;3.70;99.90
16315;DHT22;8266;52.150;4.768;2022-12-04T03:09:38;3.90;99.90
16315;DHT22;8266;52.150;4.768;2022-12-04T03:12:12;3.70;99.90
16315;DHT22;8266;52.150;4.768;2022-12-04T03:14:44;3.70;99.90
16315;DHT22;8266;52.150;4.768;2022-12-04T03:17:16;3.70;99.90
16315;DHT22;8266;52.150;4.768;2022-12-04T03:19:49;3.70;99.90
16315;DHT22;8266;52.150;4.768;2022-12-04T03:22:18;3.80;99.90
16315;DHT22;8266;52.150;4.768;2022-12-04T03:24:49;3.70;99.90
16315;DHT22;8266;52.150;4.768;2022-12-04T03:27:22;3.70;99.90
16315;DHT22;8266;52.150;4.768;2022-12-04T03:29:56;3.70;99.90
16315;DHT22;8266;52.150;4.768;2022-12-04T03:32:28;3.70;99.90
16315;DHT22;8266;52.150;4.768;2022-12-04T03:35:00;3.70;99.90
16315;DHT22;8266;52.150;4.768;2022-12-04T03:37:35;3.70;99.90
16315;DHT22;8266;52.150;4.768;2022-12-04T03:40:06;3.70;99.90
16315;DHT22;8266;52.150;4.768;2022-12-04T03:42:42;3.70;99.90
16315;DHT22;8266;52.150;4.768;2022-12-04T03:45:20;3.70;99.90
16315;DHT22;8266;52.150;4.768;2022-12-04T03:47:53;3.70;99.90
16315;DHT22;8266;52.150;4.768;2022-12-04T03:50:26;3.80;99.90
16315;DHT22;8266;52.150;4.768;2022-12-04T03:52:59;3.70;99.90
16315;DHT22;8266;52.150;4.768;2022-12-04T03:55:33;3.70;99.90
16315;DHT22;8266;52.150;4.768;2022-12-04T03:58:05;3.70;99.90
16315;DHT22;8266;52.150;4.768;2022-12-04T04:00:37;3.70;99.90
16315;DHT22;8266;52.150;4.768;2022-12-04T04:03:08;3.80;99.90
16315;DHT22;8266;52.150;4.768;2022-12-04T04:05:39;3.70;99.90
16315;DHT22;8266;52.150;4.768;2022-12-04T04:08:09;3.80;99.90
16315;DHT22;8266;52.150;4.768;2022-12-04T04:11:01;3.80;99.90
16315;DHT22;8266;52.150;4.768;2022-12-04T04:13:33;3.70;99.90
16315;DHT22;8266;52.150;4.768;2022-12-04T04:16:22;3.80;99.90
16315;DHT22;8266;52.150;4.768;2022-12-04T04:19:04;3.80;99.90
16315;DHT22;8266;52.150;4.768;2022-12-04T04:21:49;3.80;99.90
16315;DHT22;8266;52.150;4.768;2022-12-04T04:24:40;3.80;99.90
16315;DHT22;8266;52.150;4.768;2022-12-04T04:27:07;3.80;99.90
16315;DHT22;8266;52.150;4.768;2022-12-04T04:29:35;3.80;99.90
16315;DHT22;8266;52.150;4.768;2022-12-04T04:32:10;3.80;99.90
16315;DHT22;8266;52.150;4.768;2022-12-04T04:34:45;3.80;99.90
16315;DHT22;8266;52.150;4.768;2022-12-04T04:37:20;3.80;99.90
16315;DHT22;8266;52.150;4.768;2022-12-04T04:39:55;3.80;99.90
16315;DHT22;8266;52.150;4.768;2022-12-04T04:42:26;3.80;99.90
16315;DHT22;8266;52.150;4.768;2022-12-04T04:44:59;3.80;99.90
16315;DHT22;8266;52.150;4.768;2022-12-04T04:47:33;3.70;99.90
16315;DHT22;8266;52.150;4.768;2022-12-04T04:50:04;3.80;99.90
16315;DHT22;8266;52.150;4.768;2022-12-04T04:52:32;3.80;99.90
16315;DHT22;8266;52.150;4.768;2022-12-04T04:55:00;3.80;99.90
16315;DHT22;8266;52.150;4.768;2022-12-04T04:57:30;3.80;99.90
16315;DHT22;8266;52.150;4.768;2022-12-04T04:59:58;3.70;99.90
16315;DHT22;8266;52.150;4.768;2022-12-04T05:02:26;3.80;99.90
16315;DHT22;8266;52.150;4.768;2022-12-04T05:04:54;3.90;99.90
16315;DHT22;8266;52.150;4.768;2022-12-04T05:07:21;3.80;99.90
16315;DHT22;8266;52.150;4.768;2022-12-04T05:09:48;3.80;99.90
16315;DHT22;8266;52.150;4.768;2022-12-04T05:12:15;3.80;99.90
16315;DHT22;8266;52.150;4.768;2022-12-04T05:14:42;3.80;99.90
16315;DHT22;8266;52.150;4.768;2022-12-04T05:17:11;3.80;99.90
16315;DHT22;8266;52.150;4.768;2022-12-04T05:19:38;3.90;99.90
16315;DHT22;8266;52.150;4.768;2022-12-04T05:22:24;3.80;99.90
16315;DHT22;8266;52.150;4.768;2022-12-04T05:24:52;3.80;99.90
16315;DHT22;8266;52.150;4.768;2022-12-04T05:27:19;3.90;99.90
16315;DHT22;8266;52.150;4.768;2022-12-04T05:29:46;3.80;99.90
16315;DHT22;8266;52.150;4.768;2022-12-04T05:32:14;3.80;99.90
16315;DHT22;8266;52.150;4.768;2022-12-04T05:34:41;3.80;99.90
16315;DHT22;8266;52.150;4.768;2022-12-04T05:37:08;3.90;99.90
16315;DHT22;8266;52.150;4.768;2022-12-04T05:39:37;4.00;99.90
16315;DHT22;8266;52.150;4.768;2022-12-04T05:42:04;3.90;99.90
16315;DHT22;8266;52.150;4.768;2022-12-04T05:44:31;3.80;99.90
16315;DHT22;8266;52.150;4.768;2022-12-04T05:46:57;4.00;99.90
16315;DHT22;8266;52.150;4.768;2022-12-04T05:49:27;3.80;99.90
16315;DHT22;8266;52.150;4.768;2022-12-04T05:51:54;3.90;99.90
16315;DHT22;8266;52.150;4.768;2022-12-04T05:54:22;3.90;99.90
16315;DHT22;8266;52.150;4.768;2022-12-04T05:56:51;4.00;99.90
16315;DHT22;8266;52.150;4.768;2022-12-04T05:59:18;3.90;99.90
16315;DHT22;8266;52.150;4.768;2022-12-04T06:01:46;3.90;99.90
16315;DHT22;8266;52.150;4.768;2022-12-04T06:04:21;3.90;99.90
16315;DHT22;8266;52.150;4.768;2022-12-04T06:06:48;3.90;99.90
16315;DHT22;8266;52.150;4.768;2022-12-04T06:09:16;3.90;99.90
16315;DHT22;8266;52.150;4.768;2022-12-04T06:11:43;4.00;99.90
16315;DHT22;8266;52.150;4.768;2022-12-04T06:14:13;3.90;99.90
16315;DHT22;8266;52.150;4.768;2022-12-04T06:16:42;3.90;99.90
16315;DHT22;8266;52.150;4.768;2022-12-04T06:19:11;3.90;99.90
16315;DHT22;8266;52.150;4.768;2022-12-04T06:21:40;3.90;99.90
16315;DHT22;8266;52.150;4.768;2022-12-04T06:24:09;3.90;99.90
16315;DHT22;8266;52.150;4.768;2022-12-04T06:26:38;3.90;99.90
16315;DHT22;8266;52.150;4.768;2022-12-04T06:29:05;4.00;99.90
16315;DHT22;8266;52.150;4.768;2022-12-04T06:31:34;3.90;99.90
16315;DHT22;8266;52.150;4.768;2022-12-04T06:34:05;3.90;99.90
16315;DHT22;8266;52.150;4.768;2022-12-04T06:36:34;4.00;99.90
16315;DHT22;8266;52.150;4.768;2022-12-04T06:39:01;3.90;99.90
16315;DHT22;8266;52.150;4.768;2022-12-04T06:41:28;4.00;99.90
16315;DHT22;8266;52.150;4.768;2022-12-04T06:43:56;3.90;99.90
16315;DHT22;8266;52.150;4.768;2022-12-04T06:46:24;4.00;99.90
16315;DHT22;8266;52.150;4.768;2022-12-04T06:48:53;3.90;99.90
16315;DHT22;8266;52.150;4.768;2022-12-04T06:51:25;3.90;99.90
16315;DHT22;8266;52.150;4.768;2022-12-04T06:53:52;3.90;99.90
16315;DHT22;8266;52.150;4.768;2022-12-04T06:56:21;4.00;99.90
16315;DHT22;8266;52.150;4.768;2022-12-04T06:58:51;3.90;99.90
16315;DHT22;8266;52.150;4.768;2022-12-04T07:01:19;3.90;99.90
16315;DHT22;8266;52.150;4.768;2022-12-04T07:03:48;3.90;99.90
16315;DHT22;8266;52.150;4.768;2022-12-04T07:06:18;3.90;99.90
16315;DHT22;8266;52.150;4.768;2022-12-04T07:08:48;3.90;99.90
16315;DHT22;8266;52.150;4.768;2022-12-04T07:11:16;4.00;99.90
16315;DHT22;8266;52.150;4.768;2022-12-04T07:13:43;3.90;99.90
16315;DHT22;8266;52.150;4.768;2022-12-04T07:16:13;3.90;99.90
16315;DHT22;8266;52.150;4.768;2022-12-04T07:18:40;4.00;99.90
16315;DHT22;8266;52.150;4.768;2022-12-04T07:21:09;3.90;99.90
16315;DHT22;8266;52.150;4.768;2022-12-04T07:23:38;3.90;99.90
16315;DHT22;8266;52.150;4.768;2022-12-04T07:26:05;4.00;99.90
16315;DHT22;8266;52.150;4.768;2022-12-04T07:28:32;3.90;99.90
16315;DHT22;8266;52.150;4.768;2022-12-04T07:31:03;3.90;99.90
16315;DHT22;8266;52.150;4.768;2022-12-04T07:33:31;3.90;99.90
16315;DHT22;8266;52.150;4.768;2022-12-04T07:35:59;3.90;99.90
16315;DHT22;8266;52.150;4.768;2022-12-04T07:38:26;4.00;99.90
16315;DHT22;8266;52.150;4.768;2022-12-04T07:40:56;4.00;99.90
16315;DHT22;8266;52.150;4.768;2022-12-04T07:43:23;3.90;99.90
16315;DHT22;8266;52.150;4.768;2022-12-04T07:45:50;3.90;99.90
16315;DHT22;8266;52.150;4.768;2022-12-04T07:48:18;3.80;99.90
16315;DHT22;8266;52.150;4.768;2022-12-04T07:50:45;3.90;99.90
16315;DHT22;8266;52.150;4.768;2022-12-04T07:53:12;3.80;99.90
16315;DHT22;8266;52.150;4.768;2022-12-04T07:55:39;3.90;99.90
16315;DHT22;8266;52.150;4.768;2022-12-04T07:58:07;3.90;99.90
16315;DHT22;8266;52.150;4.768;2022-12-04T08:00:34;3.90;99.90
16315;DHT22;8266;52.150;4.768;2022-12-04T08:03:01;3.80;99.90
16315;DHT22;8266;52.150;4.768;2022-12-04T08:05:28;3.80;99.90
16315;DHT22;8266;52.150;4.768;2022-12-04T08:07:55;3.90;99.90
16315;DHT22;8266;52.150;4.768;2022-12-04T08:10:22;3.90;99.90
16315;DHT22;8266;52.150;4.768;2022-12-04T08:12:49;4.00;99.90
16315;DHT22;8266;52.150;4.768;2022-12-04T08:15:18;3.90;99.90
16315;DHT22;8266;52.150;4.768;2022-12-04T08:17:45;4.00;99.90
16315;DHT22;8266;52.150;4.768;2022-12-04T08:20:12;3.90;99.90
16315;DHT22;8266;52.150;4.768;2022-12-04T08:22:39;3.90;99.90
16315;DHT22;8266;52.150;4.768;2022-12-04T08:25:06;3.90;99.90
16315;DHT22;8266;52.150;4.768;2022-12-04T08:27:33;4.00;99.90
16315;DHT22;8266;52.150;4.768;2022-12-04T08:30:00;4.00;99.90
16315;DHT22;8266;52.150;4.768;2022-12-04T08:32:29;4.00;99.90
16315;DHT22;8266;52.150;4.768;2022-12-04T08:34:56;4.00;99.90
16315;DHT22;8266;52.150;4.768;2022-12-04T08:37:23;4.00;99.90
16315;DHT22;8266;52.150;4.768;2022-12-04T08:39:52;4.00;99.90
16315;DHT22;8266;52.150;4.768;2022-12-04T08:42:19;4.10;99.90
16315;DHT22;8266;52.150;4.768;2022-12-04T08:44:45;4.10;99.90
16315;DHT22;8266;52.150;4.768;2022-12-04T08:47:12;4.10;99.90
16315;DHT22;8266;52.150;4.768;2022-12-04T08:49:41;4.00;99.90
16315;DHT22;8266;52.150;4.768;2022-12-04T08:52:08;4.20;99.90
16315;DHT22;8266;52.150;4.768;2022-12-04T08:54:35;4.20;99.90
16315;DHT22;8266;52.150;4.768;2022-12-04T08:57:02;4.00;99.90
16315;DHT22;8266;52.150;4.768;2022-12-04T08:59:29;4.10;99.90
16315;DHT22;8266;52.150;4.768;2022-12-04T09:01:56;4.10;99.90
16315;DHT22;8266;52.150;4.768;2022-12-04T09:04:23;4.10;99.90
16315;DHT22;8266;52.150;4.768;2022-12-04T09:06:52;4.10;99.90
16315;DHT22;8266;52.150;4.768;2022-12-04T09:09:20;4.30;99.90
16315;DHT22;8266;52.150;4.768;2022-12-04T09:11:47;4.10;99.90
16315;DHT22;8266;52.150;4.768;2022-12-04T09:14:14;4.10;99.90
16315;DHT22;8266;52.150;4.768;2022-12-04T09:16:41;4.20;99.90
16315;DHT22;8266;52.150;4.768;2022-12-04T09:19:32;4.20;99.90
16315;DHT22;8266;52.150;4.768;2022-12-04T09:22:05;4.20;99.90
16315;DHT22;8266;52.150;4.768;2022-12-04T09:24:32;4.20;99.90
16315;DHT22;8266;52.150;4.768;2022-12-04T09:26:59;4.20;99.90
16315;DHT22;8266;52.150;4.768;2022-12-04T09:29:28;4.20;99.90
16315;DHT22;8266;52.150;4.768;2022-12-04T09:31:55;4.40;99.90
16315;DHT22;8266;52.150;4.768;2022-12-04T09:34:22;4.30;99.90
16315;DHT22;8266;52.150;4.768;2022-12-04T09:36:49;4.20;99.90
16315;DHT22;8266;52.150;4.768;2022-12-04T09:39:17;4.20;99.90
16315;DHT22;8266;52.150;4.768;2022-12-04T09:44:47;4.30;99.90
16315;DHT22;8266;52.150;4.768;2022-12-04T09:47:21;4.30;99.90
16315;DHT22;8266;52.150;4.768;2022-12-04T09:49:53;4.30;99.90
16315;DHT22;8266;52.150;4.768;2022-12-04T09:52:31;4.30;99.90
16315;DHT22;8266;52.150;4.768;2022-12-04T09:55:04;4.30;99.90
16315;DHT22;8266;52.150;4.768;2022-12-04T09:57:41;4.30;99.90
16315;DHT22;8266;52.150;4.768;2022-12-04T10:00:12;4.30;99.90
16315;DHT22;8266;52.150;4.768;2022-12-04T10:02:41;4.30;99.90
16315;DHT22;8266;52.150;4.768;2022-12-04T10:05:16;4.30;99.90
16315;DHT22;8266;52.150;4.768;2022-12-04T10:07:51;4.40;99.90
16315;DHT22;8266;52.150;4.768;2022-12-04T10:10:29;4.30;99.90
16315;DHT22;8266;52.150;4.768;2022-12-04T10:13:23;4.30;99.90
16315;DHT22;8266;52.150;4.768;2022-12-04T10:15:57;4.30;99.90
16315;DHT22;8266;52.150;4.768;2022-12-04T10:18:40;4.30;99.90
16315;DHT22;8266;52.150;4.768;2022-12-04T10:21:41;4.50;99.90
16315;DHT22;8266;52.150;4.768;2022-12-04T10:24:17;4.30;99.90
16315;DHT22;8266;52.150;4.768;2022-12-04T10:26:47;4.40;99.90
16315;DHT22;8266;52.150;4.768;2022-12-04T10:29:19;4.30;99.90
16315;DHT22;8266;52.150;4.768;2022-12-04T10:31:48;4.30;99.90
16315;DHT22;8266;52.150;4.768;2022-12-04T10:34:18;4.30;99.90
16315;DHT22;8266;52.150;4.768;2022-12-04T10:36:49;4.30;99.90
16315;DHT22;8266;52.150;4.768;2022-12-04T10:39:23;4.40;99.90
16315;DHT22;8266;52.150;4.768;2022-12-04T10:41:57;4.40;99.90
16315;DHT22;8266;52.150;4.768;2022-12-04T10:44:25;4.30;99.90
16315;DHT22;8266;52.150;4.768;2022-12-04T10:46:54;4.30;99.90
16315;DHT22;8266;52.150;4.768;2022-12-04T10:49:24;4.40;99.90
16315;DHT22;8266;52.150;4.768;2022-12-04T10:51:52;4.40;99.90
16315;DHT22;8266;52.150;4.768;2022-12-04T10:54:21;4.40;99.90
16315;DHT22;8266;52.150;4.768;2022-12-04T10:56:54;4.40;99.90
16315;DHT22;8266;52.150;4.768;2022-12-04T10:59:22;4.40;99.90
16315;DHT22;8266;52.150;4.768;2022-12-04T11:01:51;4.40;99.90
16315;DHT22;8266;52.150;4.768;2022-12-04T11:04:25;4.40;99.90
16315;DHT22;8266;52.150;4.768;2022-12-04T11:07:01;4.50;99.90
16315;DHT22;8266;52.150;4.768;2022-12-04T11:09:29;4.40;99.90
16315;DHT22;8266;52.150;4.768;2022-12-04T11:12:07;4.40;99.90
16315;DHT22;8266;52.150;4.768;2022-12-04T11:14:34;4.40;99.90
16315;DHT22;8266;52.150;4.768;2022-12-04T11:17:05;4.40;99.90
16315;DHT22;8266;52.150;4.768;2022-12-04T11:19:34;4.40;99.90
16315;DHT22;8266;52.150;4.768;2022-12-04T11:22:09;4.40;99.90
16315;DHT22;8266;52.150;4.768;2022-12-04T11:24:39;4.40;99.90
16315;DHT22;8266;52.150;4.768;2022-12-04T11:27:18;4.40;99.90
16315;DHT22;8266;52.150;4.768;2022-12-04T11:29:47;4.30;99.90
16315;DHT22;8266;52.150;4.768;2022-12-04T11:32:20;4.30;99.90
16315;DHT22;8266;52.150;4.768;2022-12-04T11:34:48;4.40;99.90
16315;DHT22;8266;52.150;4.768;2022-12-04T11:37:19;4.30;99.90
16315;DHT22;8266;52.150;4.768;2022-12-04T11:39:47;4.30;99.90
16315;DHT22;8266;52.150;4.768;2022-12-04T11:42:18;4.30;99.90
16315;DHT22;8266;52.150;4.768;2022-12-04T11:44:50;4.30;99.90
16315;DHT22;8266;52.150;4.768;2022-12-04T11:47:19;4.30;99.90
16315;DHT22;8266;52.150;4.768;2022-12-04T11:49:57;4.30;99.90
16315;DHT22;8266;52.150;4.768;2022-12-04T11:52:37;4.30;99.90
16315;DHT22;8266;52.150;4.768;2022-12-04T11:55:11;4.40;99.90
16315;DHT22;8266;52.150;4.768;2022-12-04T11:57:46;4.40;99.90
16315;DHT22;8266;52.150;4.768;2022-12-04T12:00:16;4.40;99.90
16315;DHT22;8266;52.150;4.768;2022-12-04T12:03:10;4.40;99.90
16315;DHT22;8266;52.150;4.768;2022-12-04T12:06:10;4.40;99.90
16315;DHT22;8266;52.150;4.768;2022-12-04T12:08:56;4.40;99.90
16315;DHT22;8266;52.150;4.768;2022-12-04T12:11:29;4.40;99.90
16315;DHT22;8266;52.150;4.768;2022-12-04T12:14:07;4.40;99.90
16315;DHT22;8266;52.150;4.768;2022-12-04T12:16:46;4.40;99.90
16315;DHT22;8266;52.150;4.768;2022-12-04T12:19:32;4.40;99.90
16315;DHT22;8266;52.150;4.768;2022-12-04T12:22:07;4.40;99.90
16315;DHT22;8266;52.150;4.768;2022-12-04T12:24:46;4.50;99.90
16315;DHT22;8266;52.150;4.768;2022-12-04T12:27:28;4.50;99.90
16315;DHT22;8266;52.150;4.768;2022-12-04T12:30:03;4.40;99.90
16315;DHT22;8266;52.150;4.768;2022-12-04T12:35:34;4.40;99.90
16315;DHT22;8266;52.150;4.768;2022-12-04T12:38:08;4.50;99.90
16315;DHT22;8266;52.150;4.768;2022-12-04T12:40:39;4.50;99.90
16315;DHT22;8266;52.150;4.768;2022-12-04T12:43:15;4.40;99.90
16315;DHT22;8266;52.150;4.768;2022-12-04T12:45:53;4.50;99.90
16315;DHT22;8266;52.150;4.768;2022-12-04T12:48:26;4.50;99.90
16315;DHT22;8266;52.150;4.768;2022-12-04T12:51:00;4.50;99.90
16315;DHT22;8266;52.150;4.768;2022-12-04T12:53:33;4.50;99.90
16315;DHT22;8266;52.150;4.768;2022-12-04T12:56:04;4.50;99.90
16315;DHT22;8266;52.150;4.768;2022-12-04T12:58:35;4.50;99.90
16315;DHT22;8266;52.150;4.768;2022-12-04T13:01:11;4.50;99.90
16315;DHT22;8266;52.150;4.768;2022-12-04T13:03:44;4.50;99.90
16315;DHT22;8266;52.150;4.768;2022-12-04T13:06:16;4.50;99.90
16315;DHT22;8266;52.150;4.768;2022-12-04T13:08:55;4.50;99.90
16315;DHT22;8266;52.150;4.768;2022-12-04T13:11:27;4.50;99.90
16315;DHT22;8266;52.150;4.768;2022-12-04T13:14:00;4.50;99.90
16315;DHT22;8266;52.150;4.768;2022-12-04T13:16:34;4.60;99.90
16315;DHT22;8266;52.150;4.768;2022-12-04T13:19:15;4.40;99.90
16315;DHT22;8266;52.150;4.768;2022-12-04T13:21:46;4.60;99.90
16315;DHT22;8266;52.150;4.768;2022-12-04T13:24:51;4.50;99.90
16315;DHT22;8266;52.150;4.768;2022-12-04T13:27:29;4.50;99.90
16315;DHT22;8266;52.150;4.768;2022-12-04T13:30:09;4.60;99.90
16315;DHT22;8266;52.150;4.768;2022-12-04T13:36:14;4.50;99.90
16315;DHT22;8266;52.150;4.768;2022-12-04T13:38:56;4.50;99.90
16315;DHT22;8266;52.150;4.768;2022-12-04T13:41:28;4.60;99.90
16315;DHT22;8266;52.150;4.768;2022-12-04T13:43:58;4.50;99.90
16315;DHT22;8266;52.150;4.768;2022-12-04T13:46:28;4.60;99.90
16315;DHT22;8266;52.150;4.768;2022-12-04T13:49:07;4.50;99.90
16315;DHT22;8266;52.150;4.768;2022-12-04T13:51:37;4.50;99.90
16315;DHT22;8266;52.150;4.768;2022-12-04T13:54:33;4.70;99.90
16315;DHT22;8266;52.150;4.768;2022-12-04T13:57:17;4.50;99.90
16315;DHT22;8266;52.150;4.768;2022-12-04T13:59:45;4.50;99.90
16315;DHT22;8266;52.150;4.768;2022-12-04T14:02:23;4.50;99.90
16315;DHT22;8266;52.150;4.768;2022-12-04T14:04:56;4.60;99.90
16315;DHT22;8266;52.150;4.768;2022-12-04T14:07:29;4.50;99.90
16315;DHT22;8266;52.150;4.768;2022-12-04T14:10:00;4.50;99.90
16315;DHT22;8266;52.150;4.768;2022-12-04T14:12:31;4.50;99.90
16315;DHT22;8266;52.150;4.768;2022-12-04T14:15:01;4.50;99.90
16315;DHT22;8266;52.150;4.768;2022-12-04T14:17:30;4.60;99.90
16315;DHT22;8266;52.150;4.768;2022-12-04T14:20:00;4.60;99.90
16315;DHT22;8266;52.150;4.768;2022-12-04T14:22:40;4.50;99.90
16315;DHT22;8266;52.150;4.768;2022-12-04T14:25:22;4.50;99.90
16315;DHT22;8266;52.150;4.768;2022-12-04T14:27:51;4.50;99.90
16315;DHT22;8266;52.150;4.768;2022-12-04T14:30:21;4.50;99.90
16315;DHT22;8266;52.150;4.768;2022-12-04T14:32:49;4.50;99.90
16315;DHT22;8266;52.150;4.768;2022-12-04T14:35:21;4.50;99.90
16315;DHT22;8266;52.150;4.768;2022-12-04T14:37:54;4.50;99.90
16315;DHT22;8266;52.150;4.768;2022-12-04T14:40:24;4.50;99.90
16315;DHT22;8266;52.150;4.768;2022-12-04T14:42:52;4.60;99.90
16315;DHT22;8266;52.150;4.768;2022-12-04T14:45:26;4.60;99.90
16315;DHT22;8266;52.150;4.768;2022-12-04T14:48:12;4.60;99.90
16315;DHT22;8266;52.150;4.768;2022-12-04T14:50:46;4.60;99.90
16315;DHT22;8266;52.150;4.768;2022-12-04T14:53:26;4.60;99.90
16315;DHT22;8266;52.150;4.768;2022-12-04T14:56:02;4.60;99.90
16315;DHT22;8266;52.150;4.768;2022-12-04T14:58:32;4.60;99.90
16315;DHT22;8266;52.150;4.768;2022-12-04T15:01:01;4.60;99.90
16315;DHT22;8266;52.150;4.768;2022-12-04T15:03:30;4.60;99.90
16315;DHT22;8266;52.150;4.768;2022-12-04T15:06:01;4.60;99.90
16315;DHT22;8266;52.150;4.768;2022-12-04T15:08:31;4.70;99.90
16315;DHT22;8266;52.150;4.768;2022-12-04T15:10:59;4.60;99.90
16315;DHT22;8266;52.150;4.768;2022-12-04T15:13:43;4.60;99.90
16315;DHT22;8266;52.150;4.768;2022-12-04T15:16:15;4.70;99.90
16315;DHT22;8266;52.150;4.768;2022-12-04T15:18:53;4.70;99.90
16315;DHT22;8266;52.150;4.768;2022-12-04T15:21:20;4.70;99.90
16315;DHT22;8266;52.150;4.768;2022-12-04T15:23:49;4.70;99.90
16315;DHT22;8266;52.150;4.768;2022-12-04T15:26:18;4.80;99.90
16315;DHT22;8266;52.150;4.768;2022-12-04T15:28:49;4.70;99.90
16315;DHT22;8266;52.150;4.768;2022-12-04T15:31:18;4.70;99.90
16315;DHT22;8266;52.150;4.768;2022-12-04T15:33:46;4.70;99.90
16315;DHT22;8266;52.150;4.768;2022-12-04T15:36:17;4.70;99.90
16315;DHT22;8266;52.150;4.768;2022-12-04T15:38:46;4.70;99.90
16315;DHT22;8266;52.150;4.768;2022-12-04T15:41:30;4.70;99.90
16315;DHT22;8266;52.150;4.768;2022-12-04T15:43:58;4.80;99.90
16315;DHT22;8266;52.150;4.768;2022-12-04T15:46:30;4.80;99.90
16315;DHT22;8266;52.150;4.768;2022-12-04T15:49:05;4.70;99.90
16315;DHT22;8266;52.150;4.768;2022-12-04T15:51:33;4.70;99.90
16315;DHT22;8266;52.150;4.768;2022-12-04T15:54:01;4.70;99.90
16315;DHT22;8266;52.150;4.768;2022-12-04T15:56:30;4.70;99.90
16315;DHT22;8266;52.150;4.768;2022-12-04T15:58:59;4.70;99.90
16315;DHT22;8266;52.150;4.768;2022-12-04T16:01:37;4.70;99.90
16315;DHT22;8266;52.150;4.768;2022-12-04T16:04:04;4.70;99.90
16315;DHT22;8266;52.150;4.768;2022-12-04T16:06:32;4.70;99.90
16315;DHT22;8266;52.150;4.768;2022-12-04T16:09:13;4.70;99.90
16315;DHT22;8266;52.150;4.768;2022-12-04T16:11:45;4.70;99.90
16315;DHT22;8266;52.150;4.768;2022-12-04T16:14:16;4.70;99.90
16315;DHT22;8266;52.150;4.768;2022-12-04T16:16:45;4.70;99.90
16315;DHT22;8266;52.150;4.768;2022-12-04T16:19:16;4.60;99.90
16315;DHT22;8266;52.150;4.768;2022-12-04T16:21:44;4.70;99.90
16315;DHT22;8266;52.150;4.768;2022-12-04T16:24:11;4.70;99.90
16315;DHT22;8266;52.150;4.768;2022-12-04T16:26:39;4.70;99.90
16315;DHT22;8266;52.150;4.768;2022-12-04T16:29:08;4.70;99.90
16315;DHT22;8266;52.150;4.768;2022-12-04T16:31:36;4.70;99.90
16315;DHT22;8266;52.150;4.768;2022-12-04T16:34:03;4.80;99.90
16315;DHT22;8266;52.150;4.768;2022-12-04T16:36:30;4.70;99.90
16315;DHT22;8266;52.150;4.768;2022-12-04T16:38:57;4.80;99.90